createdAt,value
2023-07-18T00:04:26.812Z,1.63
2023-07-18T00:09:28.615Z,1.80
2023-07-18T00:14:31.078Z,1.85
2023-07-18T00:19:34.429Z,2.22
2023-07-18T00:24:36.255Z,2.33
2023-07-18T00:29:38.075Z,2.00
2023-07-18T00:34:42.013Z,1.90
2023-07-18T00:39:43.827Z,1.58
2023-07-18T00:44:45.550Z,1.45
2023-07-18T00:49:47.702Z,1.25
2023-07-18T00:54:49.669Z,2.25
2023-07-18T00:59:52.118Z,1.95
2023-07-18T01:04:53.908Z,1.70
2023-07-18T01:10:13.700Z,1.98
2023-07-18T01:15:15.451Z,2.00
2023-07-18T01:20:24.869Z,2.00
2023-07-18T01:25:27.902Z,2.20
2023-07-18T01:30:31.393Z,1.97
2023-07-18T01:35:33.714Z,2.00
2023-07-18T01:40:35.547Z,1.90
2023-07-18T01:45:38.588Z,1.80
2023-07-18T01:50:40.333Z,1.40
2023-07-18T01:55:42.687Z,1.90
2023-07-18T02:00:44.538Z,2.00
2023-07-18T02:05:46.299Z,1.80
2023-07-18T02:10:48.095Z,2.03
2023-07-18T02:15:50.031Z,2.00
2023-07-18T02:20:51.772Z,1.83
2023-07-18T02:25:54.299Z,1.80
2023-07-18T02:30:56.423Z,1.95
2023-07-18T02:35:58.270Z,2.30
2023-07-18T02:41:00.183Z,2.60
2023-07-18T02:46:02.032Z,2.35
2023-07-18T02:51:03.899Z,2.47
2023-07-18T02:56:05.809Z,2.20
2023-07-18T03:01:09.217Z,2.38
2023-07-18T03:06:10.960Z,2.50
2023-07-18T03:11:12.881Z,2.65
2023-07-18T03:16:14.751Z,2.43
2023-07-18T03:21:17.883Z,2.30
2023-07-18T03:26:19.914Z,2.30
2023-07-18T03:31:22.114Z,2.00
2023-07-18T03:36:24.140Z,2.27
2023-07-18T03:41:26.013Z,2.30
2023-07-18T03:46:27.771Z,2.00
2023-07-18T03:51:31.079Z,2.07
2023-07-18T03:56:39.388Z,2.03
2023-07-18T04:01:41.135Z,2.07
2023-07-18T04:06:45.085Z,2.70
2023-07-18T04:11:47.470Z,2.60
2023-07-18T04:16:49.247Z,2.53
2023-07-18T04:21:50.976Z,2.60
2023-07-18T04:26:52.712Z,2.57
2023-07-18T04:31:55.108Z,2.87
2023-07-18T04:36:56.933Z,3.07
2023-07-18T04:41:58.761Z,2.77
2023-07-18T04:47:00.601Z,3.40
2023-07-18T04:52:02.376Z,3.30
2023-07-18T04:57:06.658Z,2.83
2023-07-18T05:02:08.917Z,3.13
2023-07-18T05:07:10.630Z,2.60
2023-07-18T05:12:12.435Z,2.83
2023-07-18T05:17:14.506Z,2.77
2023-07-18T05:22:16.269Z,3.13
2023-07-18T05:27:19.039Z,2.80
2023-07-18T05:32:20.991Z,2.70
2023-07-18T05:37:26.019Z,2.67
2023-07-18T05:42:27.765Z,2.40
2023-07-18T05:47:30.053Z,2.60
2023-07-18T05:52:32.090Z,2.93
2023-07-18T05:57:33.995Z,3.00
2023-07-18T06:02:36.118Z,2.93
2023-07-18T06:07:38.029Z,2.20
2023-07-18T06:12:39.921Z,3.03
2023-07-18T06:17:41.689Z,2.60
2023-07-18T06:22:45.449Z,2.60
2023-07-18T06:27:47.476Z,2.17
2023-07-18T06:32:49.345Z,1.90
2023-07-18T06:37:51.530Z,2.40
2023-07-18T06:42:53.343Z,2.40
2023-07-18T06:47:55.109Z,2.33
2023-07-18T06:52:56.921Z,2.40
2023-07-18T06:57:58.656Z,2.42
2023-07-18T07:03:00.574Z,2.25
2023-07-18T07:08:02.366Z,2.35
2023-07-18T07:13:04.917Z,2.20
2023-07-18T07:18:07.361Z,2.13
2023-07-18T07:23:09.181Z,1.98
2023-07-18T07:28:11.047Z,1.85
2023-07-18T07:33:13.359Z,1.67
2023-07-18T07:38:16.250Z,2.00
2023-07-18T07:43:18.157Z,2.22
2023-07-18T07:48:19.918Z,2.17
2023-07-18T07:53:21.700Z,1.95
2023-07-18T07:58:23.414Z,2.05
2023-07-18T08:03:25.162Z,2.17
2023-07-18T08:08:26.931Z,2.10
2023-07-18T08:13:29.516Z,1.80
2023-07-18T08:18:31.281Z,1.73
2023-07-18T08:23:33.016Z,2.13
2023-07-18T08:28:34.768Z,2.13
2023-07-18T08:33:36.518Z,1.83
2023-07-18T08:38:38.508Z,2.00
2023-07-18T08:43:40.282Z,1.42
2023-07-18T08:48:46.061Z,1.92
2023-07-18T08:53:47.872Z,1.85
2023-07-18T08:58:49.806Z,1.90
2023-07-18T09:03:53.103Z,2.05
2023-07-18T09:08:59.340Z,1.85
2023-07-18T09:14:01.207Z,2.40
2023-07-18T09:19:03.971Z,2.05
2023-07-18T09:24:06.048Z,2.10
2023-07-18T09:29:12.237Z,1.55
2023-07-18T09:34:14.047Z,1.77
2023-07-18T09:39:15.846Z,2.10
2023-07-18T09:44:31.294Z,1.92
2023-07-18T09:54:44.786Z,1.88
2023-07-18T09:59:50.044Z,1.90
2023-07-18T10:04:51.901Z,1.70
2023-07-18T10:09:53.828Z,2.05
2023-07-18T10:15:01.028Z,2.13
2023-07-18T10:20:34.088Z,1.80
2023-07-18T10:25:39.313Z,1.77
2023-07-18T10:30:45.826Z,1.60
2023-07-18T10:35:49.325Z,1.73
2023-07-18T10:40:53.727Z,1.45
2023-07-18T10:45:55.573Z,1.88
2023-07-18T10:50:57.432Z,2.10
2023-07-18T10:55:59.156Z,1.80
2023-07-18T11:06:23.043Z,1.83
2023-07-18T11:11:24.708Z,2.00
2023-07-18T11:16:26.509Z,2.03
2023-07-18T11:21:29.302Z,1.60
2023-07-18T11:26:33.153Z,2.22
2023-07-18T11:31:43.632Z,1.67
2023-07-18T11:36:48.298Z,1.70
2023-07-18T11:41:52.980Z,1.92
2023-07-18T11:46:56.293Z,2.00
2023-07-18T11:51:58.171Z,1.80
2023-07-18T11:56:59.889Z,1.92
2023-07-18T12:02:02.826Z,1.92
2023-07-18T12:07:04.932Z,1.98
2023-07-18T12:12:07.041Z,2.03
2023-07-18T12:17:09.728Z,2.25
2023-07-18T12:22:14.540Z,1.70
2023-07-18T12:27:16.572Z,1.73
2023-07-18T12:32:18.268Z,1.65
2023-07-18T12:37:20.797Z,2.08
2023-07-18T12:42:22.468Z,2.08
2023-07-18T12:47:24.172Z,1.58
2023-07-18T12:52:25.884Z,1.88
2023-07-18T12:57:29.575Z,1.60
2023-07-18T13:02:33.206Z,1.40
2023-07-18T13:07:35.197Z,1.80
2023-07-18T13:12:37.030Z,1.80
2023-07-18T13:17:38.741Z,2.08
2023-07-18T13:22:40.509Z,1.75
2023-07-18T13:27:42.571Z,2.22
2023-07-18T13:32:45.230Z,2.50
2023-07-18T13:37:47.029Z,2.20
2023-07-18T13:42:48.720Z,2.35
2023-07-18T13:47:50.461Z,2.20
2023-07-18T13:52:53.009Z,1.92
2023-07-18T13:57:55.074Z,2.33
2023-07-18T14:02:56.807Z,2.40
2023-07-18T14:07:58.645Z,2.05
2023-07-18T14:13:00.316Z,2.20
2023-07-18T14:18:01.994Z,3.35
2023-07-18T14:23:04.032Z,2.25
2023-07-18T14:28:05.766Z,2.53
2023-07-18T14:33:07.672Z,2.40
2023-07-18T14:38:09.449Z,2.45
2023-07-18T14:43:11.667Z,2.28
2023-07-18T14:48:13.459Z,2.33
2023-07-18T14:53:15.681Z,2.58
2023-07-18T14:58:17.554Z,2.40
2023-07-18T15:03:19.471Z,2.65
2023-07-18T15:08:21.531Z,2.58
2023-07-18T15:13:23.222Z,2.40
2023-07-18T15:18:24.908Z,2.58
2023-07-18T15:23:26.576Z,2.78
2023-07-18T15:28:28.344Z,2.42
2023-07-18T15:33:30.123Z,2.40
2023-07-18T15:38:31.897Z,2.47
2023-07-18T15:43:33.643Z,2.58
2023-07-18T15:48:35.608Z,2.53
2023-07-18T15:53:37.693Z,2.30
2023-07-18T15:58:39.376Z,2.55
2023-07-18T16:03:41.275Z,2.45
2023-07-18T16:08:43.121Z,2.90
2023-07-18T16:13:47.023Z,2.45
2023-07-18T16:18:53.210Z,2.90
2023-07-18T16:23:54.874Z,2.47
2023-07-18T16:28:56.587Z,2.53
2023-07-18T16:33:58.315Z,2.53
2023-07-18T16:39:00.125Z,3.13
2023-07-18T16:44:01.835Z,2.80
2023-07-18T16:49:04.866Z,2.58
2023-07-18T16:54:06.593Z,2.40
2023-07-18T16:59:08.571Z,2.75
2023-07-18T17:04:10.485Z,2.85
2023-07-18T17:09:12.209Z,2.70
2023-07-18T17:14:13.929Z,2.72
2023-07-18T17:19:16.072Z,2.72
2023-07-18T17:24:18.168Z,2.28
2023-07-18T17:29:20.507Z,2.42
2023-07-18T17:34:22.176Z,2.60
2023-07-18T17:39:24.712Z,2.42
2023-07-18T17:44:26.616Z,2.25
2023-07-18T17:49:28.438Z,2.33
2023-07-18T17:54:30.209Z,2.22
2023-07-18T17:59:31.888Z,3.05
2023-07-18T18:04:33.664Z,2.30
2023-07-18T18:09:35.502Z,2.30
2023-07-18T18:14:38.333Z,2.60
2023-07-18T18:19:39.979Z,2.42
2023-07-18T18:24:42.326Z,2.67
2023-07-18T18:29:43.999Z,2.78
2023-07-18T18:35:00.989Z,2.95
2023-07-18T18:40:08.016Z,2.50
2023-07-18T18:45:10.041Z,2.78
2023-07-18T18:50:12.158Z,3.17
2023-07-18T18:55:20.412Z,2.97
2023-07-18T19:00:23.252Z,3.03
2023-07-18T19:05:25.016Z,3.00
2023-07-18T19:10:27.826Z,3.08
2023-07-18T19:15:29.762Z,2.92
2023-07-18T19:20:31.442Z,3.28
2023-07-18T19:25:33.260Z,2.53
2023-07-18T19:30:35.225Z,3.17
2023-07-18T19:35:37.319Z,3.22
2023-07-18T19:40:39.081Z,2.97
2023-07-18T19:45:40.909Z,3.15
2023-07-18T19:50:44.244Z,3.47
2023-07-18T19:55:46.452Z,4.03
2023-07-18T20:00:48.170Z,3.33
2023-07-18T20:05:49.982Z,3.70
2023-07-18T20:10:51.714Z,3.30
2023-07-18T20:15:55.402Z,2.90
2023-07-18T20:20:57.060Z,3.60
2023-07-18T20:26:00.051Z,3.30
2023-07-18T20:31:01.751Z,3.45
2023-07-18T20:36:03.627Z,3.20
2023-07-18T20:41:08.434Z,3.55
2023-07-18T20:46:14.088Z,3.63
2023-07-18T20:51:15.852Z,4.25
2023-07-18T20:56:17.617Z,3.58
2023-07-18T21:01:19.883Z,3.67
2023-07-18T21:06:21.928Z,3.60
2023-07-18T21:11:23.697Z,3.25
2023-07-18T21:16:25.580Z,4.00
2023-07-18T21:21:27.421Z,3.83
2023-07-18T21:26:29.373Z,3.38
2023-07-18T21:31:31.167Z,3.75
2023-07-18T21:36:32.932Z,3.20
2023-07-18T21:41:35.096Z,3.72
2023-07-18T21:46:36.882Z,3.35
2023-07-18T21:51:42.366Z,3.50
2023-07-18T21:56:44.196Z,3.80
2023-07-18T22:01:46.489Z,4.00
2023-07-18T22:06:48.332Z,3.88
2023-07-18T22:11:52.790Z,3.97
2023-07-18T22:16:54.530Z,3.97
2023-07-18T22:21:57.951Z,3.22
2023-07-18T22:26:59.661Z,4.10
2023-07-18T22:32:01.418Z,3.80
2023-07-18T22:37:03.190Z,4.28
2023-07-18T22:42:19.486Z,4.43
2023-07-18T22:47:21.210Z,4.38
2023-07-18T22:52:23.068Z,4.32
2023-07-18T22:57:24.767Z,4.38
2023-07-18T23:02:26.689Z,4.75
2023-07-18T23:07:28.411Z,4.82
2023-07-18T23:12:30.183Z,4.25
2023-07-18T23:17:31.873Z,4.70
2023-07-18T23:22:33.593Z,5.00
2023-07-18T23:27:35.339Z,4.50
2023-07-18T23:32:37.102Z,4.57
2023-07-18T23:37:38.959Z,4.68
2023-07-18T23:42:40.669Z,4.55
2023-07-18T23:47:42.380Z,4.97
2023-07-18T23:52:44.080Z,4.88
2023-07-18T23:57:45.839Z,4.82
